sensor_id;sensor_type;location;lat;lon;timestamp;pressure;altitude;pressure_sealevel;temperature;humidity
18795;BME280;29610;49.022;12.114;2023-01-25T00:00:14;99381.16;;;2.62;100.00
18795;BME280;29610;49.022;12.114;2023-01-25T00:02:42;99373.63;;;2.82;100.00
18795;BME280;29610;49.022;12.114;2023-01-25T00:05:11;99371.84;;;2.64;100.00
18795;BME280;29610;49.022;12.114;2023-01-25T00:07:40;99368.94;;;2.66;100.00
18795;BME280;29610;49.022;12.114;2023-01-25T00:10:10;99371.38;;;2.67;100.00
18795;BME280;29610;49.022;12.114;2023-01-25T00:12:39;99370.13;;;2.81;100.00
18795;BME280;29610;49.022;12.114;2023-01-25T00:15:09;99370.03;;;2.88;100.00
18795;BME280;29610;49.022;12.114;2023-01-25T00:17:38;99377.59;;;2.79;100.00
18795;BME280;29610;49.022;12.114;2023-01-25T00:20:08;99380.25;;;2.68;100.00
18795;BME280;29610;49.022;12.114;2023-01-25T00:22:37;99376.66;;;2.74;100.00
18795;BME280;29610;49.022;12.114;2023-01-25T00:25:06;99373.47;;;2.65;100.00
18795;BME280;29610;49.022;12.114;2023-01-25T00:27:37;99363.94;;;2.69;100.00
18795;BME280;29610;49.022;12.114;2023-01-25T00:30:08;99371.28;;;2.74;100.00
18795;BME280;29610;49.022;12.114;2023-01-25T00:32:51;99358.56;;;2.81;100.00
18795;BME280;29610;49.022;12.114;2023-01-25T00:35:21;99360.63;;;2.56;100.00
18795;BME280;29610;49.022;12.114;2023-01-25T00:37:52;99360.97;;;2.59;100.00
18795;BME280;29610;49.022;12.114;2023-01-25T00:40:21;99356.13;;;2.38;100.00
18795;BME280;29610;49.022;12.114;2023-01-25T00:42:51;99350.75;;;2.38;100.00
18795;BME280;29610;49.022;12.114;2023-01-25T00:45:20;99357.59;;;2.64;100.00
18795;BME280;29610;49.022;12.114;2023-01-25T00:47:49;99344.19;;;2.64;100.00
18795;BME280;29610;49.022;12.114;2023-01-25T00:50:21;99352.47;;;2.62;100.00
18795;BME280;29610;49.022;12.114;2023-01-25T00:52:50;99351.03;;;2.48;100.00
18795;BME280;29610;49.022;12.114;2023-01-25T00:55:18;99344.88;;;2.59;100.00
18795;BME280;29610;49.022;12.114;2023-01-25T00:57:48;99346.97;;;2.57;100.00
18795;BME280;29610;49.022;12.114;2023-01-25T01:00:18;99346.13;;;2.45;100.00
18795;BME280;29610;49.022;12.114;2023-01-25T01:02:47;99357.22;;;2.49;100.00
18795;BME280;29610;49.022;12.114;2023-01-25T01:05:16;99342.81;;;2.32;100.00
18795;BME280;29610;49.022;12.114;2023-01-25T01:07:48;99349.81;;;2.33;100.00
18795;BME280;29610;49.022;12.114;2023-01-25T01:10:18;99350.16;;;2.25;100.00
18795;BME280;29610;49.022;12.114;2023-01-25T01:12:47;99351.31;;;2.29;100.00
18795;BME280;29610;49.022;12.114;2023-01-25T01:15:15;99350.72;;;2.27;100.00
18795;BME280;29610;49.022;12.114;2023-01-25T01:17:45;99360.22;;;2.11;100.00
18795;BME280;29610;49.022;12.114;2023-01-25T01:20:15;99354.44;;;2.26;100.00
18795;BME280;29610;49.022;12.114;2023-01-25T01:22:44;99362.28;;;2.27;100.00
18795;BME280;29610;49.022;12.114;2023-01-25T01:25:13;99359.50;;;2.34;100.00
18795;BME280;29610;49.022;12.114;2023-01-25T01:27:42;99362.19;;;2.34;100.00
18795;BME280;29610;49.022;12.114;2023-01-25T01:30:12;99361.81;;;2.30;100.00
18795;BME280;29610;49.022;12.114;2023-01-25T01:32:41;99364.88;;;2.34;100.00
18795;BME280;29610;49.022;12.114;2023-01-25T01:35:11;99365.69;;;2.34;100.00
18795;BME280;29610;49.022;12.114;2023-01-25T01:37:41;99369.03;;;2.00;100.00
18795;BME280;29610;49.022;12.114;2023-01-25T01:40:14;99366.28;;;2.07;100.00
18795;BME280;29610;49.022;12.114;2023-01-25T01:42:59;99363.22;;;2.03;100.00
18795;BME280;29610;49.022;12.114;2023-01-25T01:45:58;99364.56;;;1.94;100.00
18795;BME280;29610;49.022;12.114;2023-01-25T01:48:38;99364.59;;;1.76;100.00
18795;BME280;29610;49.022;12.114;2023-01-25T01:51:18;99359.28;;;1.88;100.00
18795;BME280;29610;49.022;12.114;2023-01-25T01:53:54;99357.88;;;1.85;100.00
18795;BME280;29610;49.022;12.114;2023-01-25T01:56:31;99359.44;;;1.93;100.00
18795;BME280;29610;49.022;12.114;2023-01-25T01:59:04;99364.66;;;2.06;100.00
18795;BME280;29610;49.022;12.114;2023-01-25T02:01:34;99363.34;;;2.08;100.00
18795;BME280;29610;49.022;12.114;2023-01-25T02:04:05;99358.28;;;2.18;100.00
18795;BME280;29610;49.022;12.114;2023-01-25T02:06:45;99352.59;;;2.26;100.00
18795;BME280;29610;49.022;12.114;2023-01-25T02:09:22;99352.47;;;2.21;100.00
18795;BME280;29610;49.022;12.114;2023-01-25T02:11:53;99361.91;;;2.24;100.00
18795;BME280;29610;49.022;12.114;2023-01-25T02:14:26;99359.75;;;2.14;100.00
18795;BME280;29610;49.022;12.114;2023-01-25T02:16:57;99357.91;;;2.15;100.00
18795;BME280;29610;49.022;12.114;2023-01-25T02:19:39;99357.03;;;2.03;100.00
18795;BME280;29610;49.022;12.114;2023-01-25T02:22:15;99357.75;;;2.10;100.00
18795;BME280;29610;49.022;12.114;2023-01-25T02:25:00;99357.75;;;2.10;100.00
18795;BME280;29610;49.022;12.114;2023-01-25T02:27:34;99354.91;;;2.23;100.00
18795;BME280;29610;49.022;12.114;2023-01-25T02:30:07;99352.16;;;2.11;100.00
18795;BME280;29610;49.022;12.114;2023-01-25T02:32:36;99357.53;;;2.11;100.00
18795;BME280;29610;49.022;12.114;2023-01-25T02:35:07;99355.38;;;2.20;100.00
18795;BME280;29610;49.022;12.114;2023-01-25T02:37:36;99355.84;;;2.28;100.00
18795;BME280;29610;49.022;12.114;2023-01-25T02:40:09;99351.09;;;2.30;100.00
18795;BME280;29610;49.022;12.114;2023-01-25T02:42:41;99354.44;;;2.26;100.00
18795;BME280;29610;49.022;12.114;2023-01-25T02:45:16;99354.72;;;2.36;100.00
18795;BME280;29610;49.022;12.114;2023-01-25T02:47:46;99359.50;;;2.04;100.00
18795;BME280;29610;49.022;12.114;2023-01-25T02:50:16;99356.91;;;2.27;100.00
18795;BME280;29610;49.022;12.114;2023-01-25T02:52:45;99348.03;;;2.27;100.00
18795;BME280;29610;49.022;12.114;2023-01-25T02:55:16;99350.66;;;2.45;100.00
18795;BME280;29610;49.022;12.114;2023-01-25T02:57:45;99346.25;;;2.21;100.00
18795;BME280;29610;49.022;12.114;2023-01-25T03:00:16;99351.47;;;2.04;100.00
18795;BME280;29610;49.022;12.114;2023-01-25T03:02:45;99350.19;;;2.07;100.00
18795;BME280;29610;49.022;12.114;2023-01-25T03:05:14;99347.47;;;2.25;100.00
18795;BME280;29610;49.022;12.114;2023-01-25T03:07:43;99351.78;;;1.96;100.00
18795;BME280;29610;49.022;12.114;2023-01-25T03:10:14;99347.56;;;2.18;100.00
18795;BME280;29610;49.022;12.114;2023-01-25T03:12:43;99345.25;;;2.22;100.00
18795;BME280;29610;49.022;12.114;2023-01-25T03:15:12;99337.53;;;2.25;100.00
18795;BME280;29610;49.022;12.114;2023-01-25T03:17:41;99336.66;;;2.43;100.00
18795;BME280;29610;49.022;12.114;2023-01-25T03:20:11;99331.84;;;2.33;100.00
18795;BME280;29610;49.022;12.114;2023-01-25T03:22:40;99331.81;;;2.22;100.00
18795;BME280;29610;49.022;12.114;2023-01-25T03:25:09;99327.25;;;2.22;100.00
18795;BME280;29610;49.022;12.114;2023-01-25T03:27:45;99327.53;;;2.32;100.00
18795;BME280;29610;49.022;12.114;2023-01-25T03:30:14;99323.66;;;2.28;100.00
18795;BME280;29610;49.022;12.114;2023-01-25T03:32:43;99329.44;;;2.43;100.00
18795;BME280;29610;49.022;12.114;2023-01-25T03:35:17;99317.63;;;2.33;100.00
18795;BME280;29610;49.022;12.114;2023-01-25T03:37:46;99322.53;;;2.06;100.00
18795;BME280;29610;49.022;12.114;2023-01-25T03:40:16;99322.53;;;2.06;100.00
18795;BME280;29610;49.022;12.114;2023-01-25T03:42:50;99317.94;;;2.25;100.00
18795;BME280;29610;49.022;12.114;2023-01-25T03:45:20;99318.13;;;2.12;100.00
18795;BME280;29610;49.022;12.114;2023-01-25T03:47:49;99314.59;;;2.29;100.00
18795;BME280;29610;49.022;12.114;2023-01-25T03:50:18;99328.44;;;1.97;100.00
18795;BME280;29610;49.022;12.114;2023-01-25T03:52:47;99311.84;;;2.18;100.00
18795;BME280;29610;49.022;12.114;2023-01-25T03:55:24;99313.38;;;2.14;100.00
18795;BME280;29610;49.022;12.114;2023-01-25T03:57:54;99320.50;;;2.20;100.00
18795;BME280;29610;49.022;12.114;2023-01-25T04:00:23;99312.00;;;2.23;100.00
18795;BME280;29610;49.022;12.114;2023-01-25T04:02:58;99311.50;;;2.14;100.00
18795;BME280;29610;49.022;12.114;2023-01-25T04:05:29;99306.81;;;2.10;100.00
18795;BME280;29610;49.022;12.114;2023-01-25T04:07:57;99308.97;;;2.31;100.00
18795;BME280;29610;49.022;12.114;2023-01-25T04:10:33;99303.47;;;2.26;100.00
18795;BME280;29610;49.022;12.114;2023-01-25T04:13:04;99295.66;;;2.24;100.00
18795;BME280;29610;49.022;12.114;2023-01-25T04:15:34;99293.91;;;2.18;100.00
18795;BME280;29610;49.022;12.114;2023-01-25T04:18:10;99291.22;;;2.18;100.00
18795;BME280;29610;49.022;12.114;2023-01-25T04:20:39;99288.44;;;2.36;100.00
18795;BME280;29610;49.022;12.114;2023-01-25T04:23:10;99280.09;;;2.03;100.00
18795;BME280;29610;49.022;12.114;2023-01-25T04:25:41;99275.94;;;2.19;100.00
18795;BME280;29610;49.022;12.114;2023-01-25T04:28:15;99282.81;;;2.15;100.00
18795;BME280;29610;49.022;12.114;2023-01-25T04:30:44;99277.72;;;2.25;100.00
18795;BME280;29610;49.022;12.114;2023-01-25T04:33:13;99267.09;;;2.30;100.00
18795;BME280;29610;49.022;12.114;2023-01-25T04:35:43;99265.59;;;2.34;100.00
18795;BME280;29610;49.022;12.114;2023-01-25T04:38:14;99261.06;;;2.46;100.00
18795;BME280;29610;49.022;12.114;2023-01-25T04:40:44;99257.94;;;2.49;100.00
18795;BME280;29610;49.022;12.114;2023-01-25T04:43:15;99254.03;;;2.33;100.00
18795;BME280;29610;49.022;12.114;2023-01-25T04:45:45;99256.59;;;2.28;100.00
18795;BME280;29610;49.022;12.114;2023-01-25T04:48:21;99254.09;;;2.04;100.00
18795;BME280;29610;49.022;12.114;2023-01-25T04:50:55;99249.88;;;2.37;100.00
18795;BME280;29610;49.022;12.114;2023-01-25T04:53:25;99246.38;;;2.48;100.00
18795;BME280;29610;49.022;12.114;2023-01-25T04:55:58;99240.63;;;2.33;100.00
18795;BME280;29610;49.022;12.114;2023-01-25T04:58:32;99247.41;;;2.36;100.00
18795;BME280;29610;49.022;12.114;2023-01-25T05:01:02;99252.44;;;2.44;100.00
18795;BME280;29610;49.022;12.114;2023-01-25T05:03:32;99244.06;;;2.52;100.00
18795;BME280;29610;49.022;12.114;2023-01-25T05:06:01;99252.56;;;2.72;100.00
18795;BME280;29610;49.022;12.114;2023-01-25T05:08:30;99240.41;;;2.81;100.00
18795;BME280;29610;49.022;12.114;2023-01-25T05:11:02;99241.38;;;2.86;100.00
18795;BME280;29610;49.022;12.114;2023-01-25T05:13:49;99239.03;;;2.90;100.00
18795;BME280;29610;49.022;12.114;2023-01-25T05:16:24;99239.13;;;3.07;100.00
18795;BME280;29610;49.022;12.114;2023-01-25T05:18:54;99239.56;;;3.15;100.00
18795;BME280;29610;49.022;12.114;2023-01-25T05:21:31;99233.31;;;2.98;100.00
18795;BME280;29610;49.022;12.114;2023-01-25T05:24:18;99230.25;;;2.94;100.00
18795;BME280;29610;49.022;12.114;2023-01-25T05:26:47;99229.78;;;2.97;100.00
18795;BME280;29610;49.022;12.114;2023-01-25T05:29:37;99227.22;;;3.03;100.00
18795;BME280;29610;49.022;12.114;2023-01-25T05:32:10;99224.34;;;2.69;100.00
18795;BME280;29610;49.022;12.114;2023-01-25T05:34:39;99226.28;;;2.51;100.00
18795;BME280;29610;49.022;12.114;2023-01-25T05:37:11;99228.88;;;2.80;100.00
18795;BME280;29610;49.022;12.114;2023-01-25T05:39:43;99227.94;;;2.86;100.00
18795;BME280;29610;49.022;12.114;2023-01-25T05:42:14;99221.16;;;2.95;100.00
18795;BME280;29610;49.022;12.114;2023-01-25T05:44:45;99222.69;;;2.91;100.00
18795;BME280;29610;49.022;12.114;2023-01-25T05:47:17;99224.31;;;2.58;100.00
18795;BME280;29610;49.022;12.114;2023-01-25T05:49:46;99220.81;;;2.57;100.00
18795;BME280;29610;49.022;12.114;2023-01-25T05:52:21;99215.91;;;2.89;100.00
18795;BME280;29610;49.022;12.114;2023-01-25T05:54:51;99215.19;;;3.05;100.00
18795;BME280;29610;49.022;12.114;2023-01-25T05:57:19;99209.91;;;3.10;100.00
18795;BME280;29610;49.022;12.114;2023-01-25T05:59:50;99216.16;;;2.76;100.00
18795;BME280;29610;49.022;12.114;2023-01-25T06:02:19;99220.47;;;2.88;100.00
18795;BME280;29610;49.022;12.114;2023-01-25T06:04:48;99212.41;;;2.77;100.00
18795;BME280;29610;49.022;12.114;2023-01-25T06:07:18;99219.19;;;2.56;100.00
18795;BME280;29610;49.022;12.114;2023-01-25T06:09:46;99218.34;;;2.90;100.00
18795;BME280;29610;49.022;12.114;2023-01-25T06:12:19;99216.25;;;2.92;100.00
18795;BME280;29610;49.022;12.114;2023-01-25T06:14:49;99220.69;;;2.52;100.00
18795;BME280;29610;49.022;12.114;2023-01-25T06:17:18;99213.81;;;2.45;100.00
18795;BME280;29610;49.022;12.114;2023-01-25T06:20:11;99217.53;;;2.55;100.00
18795;BME280;29610;49.022;12.114;2023-01-25T06:22:58;99217.78;;;2.65;100.00
18795;BME280;29610;49.022;12.114;2023-01-25T06:25:27;99211.72;;;2.81;100.00
18795;BME280;29610;49.022;12.114;2023-01-25T06:27:56;99201.44;;;2.78;100.00
18795;BME280;29610;49.022;12.114;2023-01-25T06:30:26;99208.78;;;2.94;100.00
18795;BME280;29610;49.022;12.114;2023-01-25T06:32:57;99206.88;;;3.07;100.00
18795;BME280;29610;49.022;12.114;2023-01-25T06:35:26;99216.25;;;2.81;100.00
18795;BME280;29610;49.022;12.114;2023-01-25T06:37:56;99219.28;;;2.84;100.00
18795;BME280;29610;49.022;12.114;2023-01-25T06:40:26;99228.16;;;2.85;100.00
18795;BME280;29610;49.022;12.114;2023-01-25T06:43:04;99220.81;;;2.80;100.00
18795;BME280;29610;49.022;12.114;2023-01-25T06:45:35;99223.63;;;2.85;100.00
18795;BME280;29610;49.022;12.114;2023-01-25T06:48:04;99223.28;;;2.82;100.00
18795;BME280;29610;49.022;12.114;2023-01-25T06:50:33;99224.66;;;2.73;100.00
18795;BME280;29610;49.022;12.114;2023-01-25T06:53:01;99223.16;;;2.88;100.00
18795;BME280;29610;49.022;12.114;2023-01-25T06:55:30;99227.13;;;2.51;100.00
18795;BME280;29610;49.022;12.114;2023-01-25T06:57:59;99217.31;;;2.80;100.00
18795;BME280;29610;49.022;12.114;2023-01-25T07:00:28;99219.06;;;2.97;100.00
18795;BME280;29610;49.022;12.114;2023-01-25T07:02:59;99217.31;;;2.68;100.00
18795;BME280;29610;49.022;12.114;2023-01-25T07:05:28;99212.38;;;3.12;100.00
18795;BME280;29610;49.022;12.114;2023-01-25T07:07:57;99217.78;;;2.88;100.00
18795;BME280;29610;49.022;12.114;2023-01-25T07:10:25;99217.19;;;2.98;100.00
18795;BME280;29610;49.022;12.114;2023-01-25T07:12:54;99211.47;;;2.94;100.00
18795;BME280;29610;49.022;12.114;2023-01-25T07:15:23;99205.84;;;3.08;100.00
18795;BME280;29610;49.022;12.114;2023-01-25T07:17:52;99205.75;;;3.03;100.00
18795;BME280;29610;49.022;12.114;2023-01-25T07:20:22;99205.03;;;3.07;100.00
18795;BME280;29610;49.022;12.114;2023-01-25T07:22:51;99211.66;;;3.16;100.00
18795;BME280;29610;49.022;12.114;2023-01-25T07:25:19;99208.59;;;3.24;100.00
18795;BME280;29610;49.022;12.114;2023-01-25T07:27:48;99205.13;;;3.24;100.00
18795;BME280;29610;49.022;12.114;2023-01-25T07:30:17;99203.69;;;3.21;100.00
18795;BME280;29610;49.022;12.114;2023-01-25T07:32:48;99206.31;;;3.05;100.00
18795;BME280;29610;49.022;12.114;2023-01-25T07:35:16;99196.47;;;3.22;100.00
18795;BME280;29610;49.022;12.114;2023-01-25T07:37:46;99195.28;;;3.18;100.00
18795;BME280;29610;49.022;12.114;2023-01-25T07:40:15;99197.53;;;3.21;100.00
18795;BME280;29610;49.022;12.114;2023-01-25T07:42:44;99192.28;;;3.14;100.00
18795;BME280;29610;49.022;12.114;2023-01-25T07:45:13;99202.44;;;3.24;100.00
18795;BME280;29610;49.022;12.114;2023-01-25T07:47:41;99200.06;;;3.27;100.00
18795;BME280;29610;49.022;12.114;2023-01-25T07:50:11;99196.84;;;3.42;100.00
18795;BME280;29610;49.022;12.114;2023-01-25T07:52:40;99200.38;;;3.42;100.00
18795;BME280;29610;49.022;12.114;2023-01-25T07:55:10;99202.22;;;3.42;100.00
18795;BME280;29610;49.022;12.114;2023-01-25T07:57:39;99198.19;;;3.28;100.00
18795;BME280;29610;49.022;12.114;2023-01-25T08:00:10;99201.53;;;3.46;100.00
18795;BME280;29610;49.022;12.114;2023-01-25T08:02:38;99198.69;;;3.25;100.00
18795;BME280;29610;49.022;12.114;2023-01-25T08:05:08;99195.50;;;3.28;100.00
18795;BME280;29610;49.022;12.114;2023-01-25T08:07:37;99191.78;;;3.29;100.00
18795;BME280;29610;49.022;12.114;2023-01-25T08:10:07;99193.06;;;3.26;100.00
18795;BME280;29610;49.022;12.114;2023-01-25T08:12:38;99193.31;;;3.25;100.00
18795;BME280;29610;49.022;12.114;2023-01-25T08:15:07;99197.78;;;3.08;100.00
18795;BME280;29610;49.022;12.114;2023-01-25T08:17:37;99201.28;;;3.08;100.00
18795;BME280;29610;49.022;12.114;2023-01-25T08:20:07;99201.50;;;3.18;100.00
18795;BME280;29610;49.022;12.114;2023-01-25T08:22:35;99190.28;;;3.21;100.00
18795;BME280;29610;49.022;12.114;2023-01-25T08:25:06;99198.03;;;3.06;100.00
18795;BME280;29610;49.022;12.114;2023-01-25T08:27:37;99198.28;;;2.93;100.00
18795;BME280;29610;49.022;12.114;2023-01-25T08:30:07;99199.22;;;2.75;100.00
18795;BME280;29610;49.022;12.114;2023-01-25T08:32:36;99196.53;;;2.75;100.00
18795;BME280;29610;49.022;12.114;2023-01-25T08:35:06;99197.81;;;2.84;100.00
18795;BME280;29610;49.022;12.114;2023-01-25T08:37:36;99202.38;;;2.84;100.00
18795;BME280;29610;49.022;12.114;2023-01-25T08:40:05;99199.19;;;3.10;100.00
18795;BME280;29610;49.022;12.114;2023-01-25T08:42:35;99194.84;;;3.21;100.00
18795;BME280;29610;49.022;12.114;2023-01-25T08:45:06;99194.97;;;3.14;100.00
18795;BME280;29610;49.022;12.114;2023-01-25T08:47:35;99198.94;;;3.00;100.00
18795;BME280;29610;49.022;12.114;2023-01-25T08:50:05;99191.13;;;2.98;100.00
18795;BME280;29610;49.022;12.114;2023-01-25T08:52:35;99192.19;;;2.86;100.00
18795;BME280;29610;49.022;12.114;2023-01-25T08:55:05;99200.63;;;2.78;100.00
18795;BME280;29610;49.022;12.114;2023-01-25T08:57:33;99190.69;;;2.67;100.00
18795;BME280;29610;49.022;12.114;2023-01-25T09:00:05;99188.72;;;2.51;100.00
18795;BME280;29610;49.022;12.114;2023-01-25T09:02:35;99190.84;;;2.49;100.00
18795;BME280;29610;49.022;12.114;2023-01-25T09:05:05;99188.97;;;2.49;100.00
18795;BME280;29610;49.022;12.114;2023-01-25T09:07:33;99179.06;;;2.61;100.00
18795;BME280;29610;49.022;12.114;2023-01-25T09:10:05;99184.66;;;2.60;100.00
18795;BME280;29610;49.022;12.114;2023-01-25T09:12:35;99181.03;;;2.66;100.00
18795;BME280;29610;49.022;12.114;2023-01-25T09:15:06;99180.44;;;2.64;100.00
18795;BME280;29610;49.022;12.114;2023-01-25T09:17:35;99178.94;;;2.68;100.00
18795;BME280;29610;49.022;12.114;2023-01-25T09:20:07;99179.38;;;2.76;100.00
18795;BME280;29610;49.022;12.114;2023-01-25T09:22:36;99180.19;;;2.88;100.00
18795;BME280;29610;49.022;12.114;2023-01-25T09:25:07;99177.34;;;3.07;100.00
18795;BME280;29610;49.022;12.114;2023-01-25T09:27:36;99169.41;;;3.00;100.00
18795;BME280;29610;49.022;12.114;2023-01-25T09:30:09;99166.72;;;3.00;100.00
18795;BME280;29610;49.022;12.114;2023-01-25T09:32:48;99168.81;;;3.10;100.00
18795;BME280;29610;49.022;12.114;2023-01-25T09:35:17;99169.00;;;2.80;100.00
18795;BME280;29610;49.022;12.114;2023-01-25T09:37:50;99169.00;;;2.80;100.00
18795;BME280;29610;49.022;12.114;2023-01-25T09:40:21;99169.22;;;2.67;100.00
18795;BME280;29610;49.022;12.114;2023-01-25T09:42:59;99171.56;;;2.63;100.00
18795;BME280;29610;49.022;12.114;2023-01-25T09:45:35;99164.56;;;2.62;100.00
18795;BME280;29610;49.022;12.114;2023-01-25T09:48:18;99168.53;;;2.71;100.00
18795;BME280;29610;49.022;12.114;2023-01-25T09:51:04;99169.44;;;2.88;100.00
18795;BME280;29610;49.022;12.114;2023-01-25T09:53:40;99160.44;;;2.94;100.00
18795;BME280;29610;49.022;12.114;2023-01-25T09:56:16;99162.78;;;2.91;100.00
18795;BME280;29610;49.022;12.114;2023-01-25T09:58:53;99163.38;;;2.70;100.00
18795;BME280;29610;49.022;12.114;2023-01-25T10:01:33;99157.78;;;2.71;100.00
18795;BME280;29610;49.022;12.114;2023-01-25T10:04:14;99156.34;;;2.92;100.00
18795;BME280;29610;49.022;12.114;2023-01-25T10:06:48;99150.78;;;2.93;100.00
18795;BME280;29610;49.022;12.114;2023-01-25T10:09:36;99146.19;;;2.94;100.00
18795;BME280;29610;49.022;12.114;2023-01-25T10:12:15;99141.50;;;3.13;100.00
18795;BME280;29610;49.022;12.114;2023-01-25T10:14:49;99137.84;;;3.19;100.00
18795;BME280;29610;49.022;12.114;2023-01-25T10:17:32;99131.41;;;3.20;100.00
18795;BME280;29610;49.022;12.114;2023-01-25T10:20:17;99125.69;;;3.16;100.00
18795;BME280;29610;49.022;12.114;2023-01-25T10:22:54;99122.75;;;3.18;100.00
18795;BME280;29610;49.022;12.114;2023-01-25T10:25:35;99124.03;;;3.27;100.00
18795;BME280;29610;49.022;12.114;2023-01-25T10:28:23;99119.63;;;3.21;100.00
18795;BME280;29610;49.022;12.114;2023-01-25T10:31:01;99120.38;;;3.33;100.00
18795;BME280;29610;49.022;12.114;2023-01-25T10:33:39;99111.69;;;3.42;100.00
18795;BME280;29610;49.022;12.114;2023-01-25T10:36:14;99115.78;;;3.17;100.00
18795;BME280;29610;49.022;12.114;2023-01-25T10:38:45;99102.38;;;3.05;100.00
18795;BME280;29610;49.022;12.114;2023-01-25T10:41:22;99097.78;;;3.17;100.00
18795;BME280;29610;49.022;12.114;2023-01-25T10:43:53;99094.63;;;3.20;100.00
18795;BME280;29610;49.022;12.114;2023-01-25T10:46:54;99087.22;;;3.27;100.00
18795;BME280;29610;49.022;12.114;2023-01-25T10:49:36;99080.09;;;3.05;100.00
18795;BME280;29610;49.022;12.114;2023-01-25T10:52:16;99079.59;;;3.08;100.00
18795;BME280;29610;49.022;12.114;2023-01-25T10:54:46;99079.31;;;3.21;100.00
18795;BME280;29610;49.022;12.114;2023-01-25T10:57:21;99071.50;;;3.19;100.00
18795;BME280;29610;49.022;12.114;2023-01-25T10:59:51;99074.94;;;2.63;100.00
18795;BME280;29610;49.022;12.114;2023-01-25T11:02:43;99066.97;;;2.80;100.00
18795;BME280;29610;49.022;12.114;2023-01-25T11:05:34;99061.25;;;2.76;100.00
18795;BME280;29610;49.022;12.114;2023-01-25T11:08:32;99055.13;;;2.92;100.00
18795;BME280;29610;49.022;12.114;2023-01-25T11:11:24;99042.03;;;2.96;100.00
18795;BME280;29610;49.022;12.114;2023-01-25T11:13:53;99048.09;;;3.03;100.00
18795;BME280;29610;49.022;12.114;2023-01-25T11:16:44;99051.28;;;3.17;100.00
18795;BME280;29610;49.022;12.114;2023-01-25T11:19:32;99032.53;;;3.33;100.00
18795;BME280;29610;49.022;12.114;2023-01-25T11:22:05;99035.63;;;3.42;100.00
18795;BME280;29610;49.022;12.114;2023-01-25T11:24:35;99038.56;;;3.57;100.00
18795;BME280;29610;49.022;12.114;2023-01-25T11:27:23;99033.50;;;3.44;100.00
18795;BME280;29610;49.022;12.114;2023-01-25T11:30:17;99030.25;;;3.25;100.00
18795;BME280;29610;49.022;12.114;2023-01-25T11:32:46;99022.22;;;3.14;100.00
18795;BME280;29610;49.022;12.114;2023-01-25T11:35:28;99024.22;;;2.90;100.00
18795;BME280;29610;49.022;12.114;2023-01-25T11:38:11;99016.72;;;2.92;100.00
18795;BME280;29610;49.022;12.114;2023-01-25T11:40:46;99019.56;;;2.85;100.00
18795;BME280;29610;49.022;12.114;2023-01-25T11:43:30;99013.03;;;2.81;100.00
18795;BME280;29610;49.022;12.114;2023-01-25T11:46:21;99013.63;;;2.83;100.00
18795;BME280;29610;49.022;12.114;2023-01-25T11:49:13;99001.72;;;2.79;100.00
18795;BME280;29610;49.022;12.114;2023-01-25T11:51:53;99001.31;;;2.87;100.00
18795;BME280;29610;49.022;12.114;2023-01-25T11:54:44;99000.38;;;2.65;100.00
18795;BME280;29610;49.022;12.114;2023-01-25T11:57:44;98995.22;;;2.75;100.00
18795;BME280;29610;49.022;12.114;2023-01-25T12:00:45;98990.81;;;2.69;100.00
18795;BME280;29610;49.022;12.114;2023-01-25T12:06:52;98973.19;;;2.62;100.00
18795;BME280;29610;49.022;12.114;2023-01-25T12:09:54;98964.44;;;2.66;100.00
18795;BME280;29610;49.022;12.114;2023-01-25T12:12:40;98958.63;;;2.58;100.00
18795;BME280;29610;49.022;12.114;2023-01-25T12:15:43;98950.59;;;2.58;100.00
18795;BME280;29610;49.022;12.114;2023-01-25T12:18:55;98948.88;;;2.52;100.00
18795;BME280;29610;49.022;12.114;2023-01-25T12:21:51;98944.16;;;2.59;100.00
18795;BME280;29610;49.022;12.114;2023-01-25T12:24:39;98942.97;;;2.66;100.00
18795;BME280;29610;49.022;12.114;2023-01-25T12:27:25;98941.91;;;2.39;100.00
18795;BME280;29610;49.022;12.114;2023-01-25T12:30:02;98936.19;;;2.64;100.00
18795;BME280;29610;49.022;12.114;2023-01-25T12:32:38;98930.56;;;2.49;100.00
18795;BME280;29610;49.022;12.114;2023-01-25T12:35:27;98924.31;;;2.60;100.00
18795;BME280;29610;49.022;12.114;2023-01-25T12:38:02;98915.94;;;2.73;100.00
18795;BME280;29610;49.022;12.114;2023-01-25T12:40:47;98912.28;;;2.62;100.00
18795;BME280;29610;49.022;12.114;2023-01-25T12:43:23;98904.84;;;2.53;100.00
18795;BME280;29610;49.022;12.114;2023-01-25T12:45:56;98910.72;;;2.50;100.00
18795;BME280;29610;49.022;12.114;2023-01-25T12:48:31;98907.91;;;2.73;100.00
18795;BME280;29610;49.022;12.114;2023-01-25T12:51:03;98904.66;;;2.87;100.00
18795;BME280;29610;49.022;12.114;2023-01-25T12:53:36;98894.75;;;2.88;100.00
18795;BME280;29610;49.022;12.114;2023-01-25T12:56:20;98882.69;;;2.90;100.00
18795;BME280;29610;49.022;12.114;2023-01-25T12:59:01;98885.78;;;2.66;100.00
18795;BME280;29610;49.022;12.114;2023-01-25T13:01:45;98885.25;;;2.52;100.00
18795;BME280;29610;49.022;12.114;2023-01-25T13:04:38;98883.97;;;2.27;100.00
18795;BME280;29610;49.022;12.114;2023-01-25T13:07:19;98873.63;;;2.47;100.00
18795;BME280;29610;49.022;12.114;2023-01-25T13:09:58;98876.25;;;2.30;100.00
18795;BME280;29610;49.022;12.114;2023-01-25T13:12:53;98869.78;;;2.43;100.00
18795;BME280;29610;49.022;12.114;2023-01-25T13:15:40;98859.44;;;2.35;100.00
18795;BME280;29610;49.022;12.114;2023-01-25T13:18:37;98853.94;;;2.41;100.00
18795;BME280;29610;49.022;12.114;2023-01-25T13:21:38;98848.91;;;2.45;100.00
18795;BME280;29610;49.022;12.114;2023-01-25T13:24:17;98851.88;;;2.32;100.00
18795;BME280;29610;49.022;12.114;2023-01-25T13:27:02;98850.06;;;2.65;100.00
18795;BME280;29610;49.022;12.114;2023-01-25T13:29:59;98856.13;;;2.44;100.00